createdAt,value
2019-01-30T00:01:09.964Z,3.06
2019-01-30T00:03:38.640Z,3.08
2019-01-30T00:06:08.554Z,3.12
2019-01-30T00:08:36.727Z,3.15
2019-01-30T00:11:05.781Z,3.20
2019-01-30T00:13:33.958Z,3.26
2019-01-30T00:16:02.030Z,3.34
2019-01-30T00:18:30.095Z,3.41
2019-01-30T00:20:58.193Z,3.46
2019-01-30T00:23:28.090Z,3.52
2019-01-30T00:25:56.144Z,3.58
2019-01-30T00:28:25.286Z,3.62
2019-01-30T00:30:53.337Z,3.66
2019-01-30T00:33:21.607Z,3.69
2019-01-30T00:35:49.660Z,3.72
2019-01-30T00:38:17.822Z,3.72
2019-01-30T00:40:45.850Z,3.74
2019-01-30T00:43:13.950Z,3.73
2019-01-30T00:45:41.992Z,3.75
2019-01-30T00:48:10.070Z,3.76
2019-01-30T00:50:38.126Z,3.76
2019-01-30T00:53:06.208Z,3.77
2019-01-30T00:55:34.290Z,3.77
2019-01-30T00:58:02.354Z,3.77
2019-01-30T01:00:30.623Z,3.76
2019-01-30T01:02:59.102Z,3.78
2019-01-30T01:05:27.133Z,3.81
2019-01-30T01:07:55.407Z,3.82
2019-01-30T01:10:23.649Z,3.81
2019-01-30T01:12:51.737Z,3.82
2019-01-30T01:15:19.838Z,3.85
2019-01-30T01:17:48.997Z,3.86
2019-01-30T01:20:17.268Z,3.86
2019-01-30T01:22:45.442Z,3.88
2019-01-30T01:25:16.041Z,3.89
2019-01-30T01:27:45.230Z,3.89
2019-01-30T01:30:25.123Z,3.91
2019-01-30T01:32:49.790Z,3.92
2019-01-30T01:35:17.964Z,3.95
2019-01-30T01:37:46.032Z,3.96
2019-01-30T01:40:15.783Z,3.98
2019-01-30T01:42:44.160Z,4.00
2019-01-30T01:45:18.237Z,4.01
2019-01-30T01:47:46.301Z,4.03
2019-01-30T01:50:17.231Z,4.04
2019-01-30T01:52:45.277Z,4.07
2019-01-30T01:55:14.541Z,4.10
2019-01-30T01:57:42.586Z,4.10
2019-01-30T02:00:17.059Z,4.11
2019-01-30T02:02:45.358Z,4.10
2019-01-30T02:05:16.637Z,4.12
2019-01-30T02:07:44.685Z,4.12
2019-01-30T02:10:16.244Z,4.11
2019-01-30T02:12:44.356Z,4.11
2019-01-30T02:15:16.358Z,4.11
2019-01-30T02:17:44.393Z,4.11
2019-01-30T02:20:22.105Z,4.11
2019-01-30T02:22:50.534Z,4.11
2019-01-30T02:25:18.875Z,4.11
2019-01-30T02:27:46.901Z,4.12
2019-01-30T02:30:20.907Z,4.12
2019-01-30T02:32:49.127Z,4.11
2019-01-30T02:35:17.500Z,4.10
2019-01-30T02:37:45.540Z,4.11
2019-01-30T02:40:15.689Z,4.11
2019-01-30T02:42:43.848Z,4.13
2019-01-30T02:45:15.171Z,4.14
2019-01-30T02:47:43.233Z,4.16
2019-01-30T02:50:13.923Z,4.18
2019-01-30T02:52:41.990Z,4.20
2019-01-30T02:55:12.774Z,4.20
2019-01-30T02:57:40.873Z,4.21
2019-01-30T03:00:24.193Z,4.23
2019-01-30T03:02:52.353Z,4.24
2019-01-30T03:05:20.426Z,4.27
2019-01-30T03:07:48.846Z,4.28
2019-01-30T03:10:17.469Z,4.27
2019-01-30T03:12:45.676Z,4.27
2019-01-30T03:15:14.414Z,4.26
2019-01-30T03:17:42.497Z,4.25
2019-01-30T03:20:19.174Z,4.26
2019-01-30T03:22:47.340Z,4.28
2019-01-30T03:25:16.207Z,4.28
2019-01-30T03:27:44.417Z,4.27
2019-01-30T03:30:25.029Z,4.29
2019-01-30T03:32:53.616Z,4.30
2019-01-30T03:35:22.163Z,4.32
2019-01-30T03:37:50.194Z,4.34
2019-01-30T03:40:18.815Z,4.35
2019-01-30T03:42:46.878Z,4.37
2019-01-30T03:45:17.516Z,4.38
2019-01-30T03:47:45.601Z,4.40
2019-01-30T03:50:13.801Z,4.41
2019-01-30T03:52:42.967Z,4.44
2019-01-30T03:55:12.515Z,4.46
2019-01-30T03:57:40.595Z,4.46
2019-01-30T04:00:13.513Z,4.48
2019-01-30T04:02:41.572Z,4.50
2019-01-30T04:05:09.749Z,4.50
2019-01-30T04:07:37.811Z,4.48
2019-01-30T04:10:07.272Z,4.45
2019-01-30T04:12:35.371Z,4.44
2019-01-30T04:15:04.864Z,4.43
2019-01-30T04:17:32.919Z,4.44
2019-01-30T04:20:00.975Z,4.44
2019-01-30T04:22:29.477Z,4.46
2019-01-30T04:24:57.530Z,4.46
2019-01-30T04:27:25.578Z,4.47
2019-01-30T04:29:53.652Z,4.47
2019-01-30T04:32:21.775Z,4.48
2019-01-30T04:34:49.867Z,4.50
2019-01-30T04:37:17.944Z,4.51
2019-01-30T04:39:46.013Z,4.53
2019-01-30T04:42:14.048Z,4.54
2019-01-30T04:44:42.200Z,4.55
2019-01-30T04:47:10.294Z,4.55
2019-01-30T04:49:38.755Z,4.56
2019-01-30T04:52:07.094Z,4.54
2019-01-30T04:54:35.235Z,4.52
2019-01-30T04:57:03.317Z,4.51
2019-01-30T04:59:33.528Z,4.50
2019-01-30T05:02:03.304Z,4.50
2019-01-30T05:04:31.483Z,4.49
2019-01-30T05:07:01.281Z,4.47
2019-01-30T05:09:29.377Z,4.44
2019-01-30T05:11:57.427Z,4.37
2019-01-30T05:14:26.626Z,4.35
2019-01-30T05:16:54.711Z,4.34
2019-01-30T05:19:22.798Z,4.33
2019-01-30T05:21:50.921Z,4.29
2019-01-30T05:24:19.010Z,4.29
2019-01-30T05:26:47.190Z,4.27
2019-01-30T05:29:15.459Z,4.25
2019-01-30T05:31:43.617Z,4.22
2019-01-30T05:34:11.680Z,4.19
2019-01-30T05:36:39.778Z,4.21
2019-01-30T05:39:08.758Z,4.17
2019-01-30T05:41:36.890Z,4.11
2019-01-30T05:44:04.974Z,4.06
2019-01-30T05:46:33.361Z,4.01
2019-01-30T05:49:01.429Z,3.97
2019-01-30T05:51:29.835Z,3.95
2019-01-30T05:53:57.921Z,3.89
2019-01-30T05:56:27.731Z,3.88
2019-01-30T05:58:55.817Z,3.88
2019-01-30T06:01:24.246Z,3.88
2019-01-30T06:03:54.212Z,3.87
2019-01-30T06:06:22.381Z,3.89
2019-01-30T06:08:50.478Z,3.92
2019-01-30T06:11:18.588Z,3.94
2019-01-30T06:13:46.651Z,3.93
2019-01-30T06:16:14.762Z,3.91
2019-01-30T06:18:42.811Z,3.89
2019-01-30T06:21:10.868Z,3.98
2019-01-30T06:23:38.926Z,4.13
2019-01-30T06:26:06.996Z,4.34
2019-01-30T06:28:35.313Z,4.53
2019-01-30T06:31:03.658Z,4.65
2019-01-30T06:33:31.711Z,4.79
2019-01-30T06:35:59.820Z,4.90
2019-01-30T06:38:27.849Z,5.03
2019-01-30T06:40:55.914Z,5.11
2019-01-30T06:43:23.956Z,5.19
2019-01-30T06:45:52.101Z,5.24
2019-01-30T06:48:20.165Z,5.28
2019-01-30T06:50:48.746Z,5.33
2019-01-30T06:53:16.821Z,5.36
2019-01-30T06:55:44.952Z,5.37
2019-01-30T06:58:13.024Z,5.38
2019-01-30T07:00:41.103Z,5.41
2019-01-30T07:03:09.187Z,5.45
2019-01-30T07:05:39.053Z,5.49
2019-01-30T07:08:07.147Z,5.51
2019-01-30T07:10:35.317Z,5.52
2019-01-30T07:13:03.406Z,5.53
2019-01-30T07:15:31.425Z,5.57
2019-01-30T07:17:59.751Z,5.60
2019-01-30T07:20:27.828Z,5.65
2019-01-30T07:22:55.842Z,5.68
2019-01-30T07:25:23.979Z,5.73
2019-01-30T07:27:52.264Z,5.76
2019-01-30T07:30:35.105Z,5.78
2019-01-30T07:33:04.314Z,5.81
2019-01-30T07:35:32.351Z,5.85
2019-01-30T07:38:01.566Z,5.89
2019-01-30T07:40:30.299Z,5.89
2019-01-30T07:42:58.451Z,5.93
2019-01-30T07:45:28.319Z,5.94
2019-01-30T07:47:56.421Z,5.96
2019-01-30T07:50:24.486Z,6.00
2019-01-30T07:52:52.680Z,6.02
2019-01-30T07:55:20.736Z,6.06
2019-01-30T07:57:48.929Z,6.12
2019-01-30T08:00:23.829Z,6.15
2019-01-30T08:02:53.636Z,6.19
2019-01-30T08:05:22.793Z,6.24
2019-01-30T08:07:51.475Z,6.26
2019-01-30T08:10:19.556Z,6.27
2019-01-30T08:12:47.632Z,6.31
2019-01-30T08:15:17.004Z,6.36
2019-01-30T08:17:45.096Z,6.40
2019-01-30T08:20:16.165Z,6.41
2019-01-30T08:22:44.511Z,6.41
2019-01-30T08:25:15.236Z,6.40
2019-01-30T08:27:43.638Z,6.44
2019-01-30T08:30:22.582Z,6.51
2019-01-30T08:32:46.632Z,6.69
2019-01-30T08:35:15.615Z,6.89
2019-01-30T08:37:45.896Z,7.10
2019-01-30T08:40:13.739Z,7.21
2019-01-30T08:42:41.787Z,7.18
2019-01-30T08:45:17.602Z,7.17
2019-01-30T08:47:45.709Z,7.11
2019-01-30T08:50:14.607Z,7.00
2019-01-30T08:52:42.713Z,6.99
2019-01-30T08:55:11.173Z,6.95
2019-01-30T08:57:39.538Z,6.95
2019-01-30T09:00:12.225Z,6.95
2019-01-30T09:02:40.309Z,6.99
2019-01-30T09:05:08.687Z,7.18
2019-01-30T09:07:43.860Z,7.33
2019-01-30T09:10:10.500Z,7.37
2019-01-30T09:12:38.854Z,7.42
2019-01-30T09:15:08.811Z,7.38
2019-01-30T09:17:36.912Z,7.31
2019-01-30T09:20:07.593Z,7.27
2019-01-30T09:22:35.647Z,7.23
2019-01-30T09:25:04.917Z,7.06
2019-01-30T09:27:32.988Z,6.95
2019-01-30T09:30:01.324Z,6.94
2019-01-30T09:32:29.383Z,6.90
2019-01-30T09:34:57.452Z,6.85
2019-01-30T09:37:27.289Z,6.78
2019-01-30T09:39:55.823Z,6.73
2019-01-30T09:42:24.018Z,6.71
2019-01-30T09:44:52.135Z,6.72
2019-01-30T09:47:20.223Z,6.72
2019-01-30T09:49:48.252Z,6.71
2019-01-30T09:52:26.397Z,6.66
2019-01-30T09:54:46.785Z,6.62
2019-01-30T09:57:15.251Z,6.61
2019-01-30T09:59:43.340Z,6.57
2019-01-30T10:02:11.499Z,6.54
2019-01-30T10:04:40.663Z,6.58
2019-01-30T10:07:08.986Z,6.62
2019-01-30T10:09:37.745Z,6.68
2019-01-30T10:12:06.165Z,6.70
2019-01-30T10:14:34.594Z,6.68
2019-01-30T10:17:02.649Z,6.67
2019-01-30T10:19:30.753Z,6.65
2019-01-30T10:21:58.838Z,6.65
2019-01-30T10:24:29.036Z,6.65
2019-01-30T10:26:57.033Z,6.65
2019-01-30T10:29:25.121Z,6.65
2019-01-30T10:31:53.154Z,6.68
2019-01-30T10:34:21.523Z,6.67
2019-01-30T10:36:49.547Z,6.65
2019-01-30T10:39:17.611Z,6.63
2019-01-30T10:41:45.645Z,6.63
2019-01-30T10:44:13.788Z,6.61
2019-01-30T10:46:41.841Z,6.58
2019-01-30T10:49:09.947Z,6.55
2019-01-30T10:51:37.956Z,6.54
2019-01-30T10:54:06.033Z,6.52
2019-01-30T10:56:34.842Z,6.47
2019-01-30T10:59:03.216Z,6.40
2019-01-30T11:01:31.260Z,6.35
2019-01-30T11:03:59.361Z,6.31
2019-01-30T11:06:27.367Z,6.29
2019-01-30T11:08:55.453Z,6.29
2019-01-30T11:11:24.469Z,6.32
2019-01-30T11:13:52.822Z,6.33
2019-01-30T11:16:20.894Z,6.35
2019-01-30T11:18:48.990Z,6.32
2019-01-30T11:21:17.082Z,6.28
2019-01-30T11:23:45.155Z,6.25
2019-01-30T11:26:14.212Z,6.24
2019-01-30T11:28:42.288Z,6.18
2019-01-30T11:31:10.322Z,6.14
2019-01-30T11:33:38.426Z,6.08
2019-01-30T11:36:06.602Z,6.07
2019-01-30T11:38:35.037Z,6.06
2019-01-30T11:41:03.402Z,6.05
2019-01-30T11:43:31.511Z,6.04
2019-01-30T11:46:01.090Z,6.03
2019-01-30T11:48:29.186Z,6.04
2019-01-30T11:50:57.198Z,6.02
2019-01-30T11:53:25.384Z,5.97
2019-01-30T11:55:53.413Z,5.92
2019-01-30T11:58:21.478Z,5.89
2019-01-30T12:00:56.016Z,5.89
2019-01-30T12:03:24.072Z,5.90
2019-01-30T12:05:52.117Z,5.94
2019-01-30T12:08:20.191Z,5.92
2019-01-30T12:10:48.236Z,5.95
2019-01-30T12:13:16.301Z,5.97
2019-01-30T12:15:44.349Z,5.95
2019-01-30T12:18:12.504Z,5.91
2019-01-30T12:20:40.612Z,5.87
2019-01-30T12:23:09.199Z,5.84
2019-01-30T12:25:37.234Z,5.85
2019-01-30T12:28:05.540Z,5.86
2019-01-30T12:30:34.446Z,5.84
2019-01-30T12:33:02.767Z,5.83
2019-01-30T12:35:30.832Z,5.84
2019-01-30T12:38:00.649Z,5.84
2019-01-30T12:40:28.699Z,5.85
2019-01-30T12:42:56.763Z,5.82
2019-01-30T12:45:30.853Z,5.80
2019-01-30T12:47:59.028Z,5.82
2019-01-30T12:50:27.407Z,5.80
2019-01-30T12:52:55.493Z,5.80
2019-01-30T12:55:23.839Z,5.79
2019-01-30T12:57:53.356Z,5.75
2019-01-30T13:00:25.012Z,5.72
2019-01-30T13:02:53.481Z,5.68
2019-01-30T13:05:23.899Z,5.62
2019-01-30T13:07:52.019Z,5.62
2019-01-30T13:10:20.259Z,5.60
2019-01-30T13:12:48.641Z,5.56
2019-01-30T13:15:18.462Z,5.56
2019-01-30T13:17:46.939Z,5.56
2019-01-30T13:20:17.568Z,5.55
2019-01-30T13:22:46.053Z,5.56
2019-01-30T13:25:17.419Z,5.56
2019-01-30T13:27:46.837Z,5.59
2019-01-30T13:30:24.801Z,5.59
2019-01-30T13:32:52.905Z,5.58
2019-01-30T13:35:22.120Z,5.55
2019-01-30T13:37:50.289Z,5.53
2019-01-30T13:40:25.234Z,5.51
2019-01-30T13:42:53.499Z,5.48
2019-01-30T13:45:22.976Z,5.44
2019-01-30T13:47:52.370Z,5.39
2019-01-30T13:50:22.698Z,5.37
2019-01-30T13:52:50.801Z,5.37
2019-01-30T13:55:18.798Z,5.41
2019-01-30T13:57:48.074Z,5.41
2019-01-30T14:00:22.893Z,5.38
2019-01-30T14:02:52.189Z,5.37
2019-01-30T14:05:20.283Z,5.40
2019-01-30T14:07:50.904Z,5.41
2019-01-30T14:10:19.157Z,5.39
2019-01-30T14:12:47.325Z,5.39
2019-01-30T14:15:18.375Z,5.35
2019-01-30T14:17:46.463Z,5.35
2019-01-30T14:20:15.269Z,5.37
2019-01-30T14:22:44.558Z,5.36
2019-01-30T14:25:13.306Z,5.36
2019-01-30T14:27:41.466Z,5.38
2019-01-30T14:30:18.726Z,5.42
2019-01-30T14:32:47.116Z,5.43
2019-01-30T14:35:15.180Z,5.43
2019-01-30T14:37:43.233Z,5.44
2019-01-30T14:40:13.375Z,5.41
2019-01-30T14:42:41.414Z,5.40
2019-01-30T14:45:12.410Z,5.41
2019-01-30T14:47:40.472Z,5.40
2019-01-30T14:50:13.323Z,5.40
2019-01-30T14:52:44.179Z,5.42
2019-01-30T14:55:13.576Z,5.45
2019-01-30T14:57:43.340Z,5.50
2019-01-30T15:00:16.457Z,5.55
2019-01-30T15:02:44.501Z,5.58
2019-01-30T15:05:21.868Z,5.61
2019-01-30T15:07:43.724Z,5.65
2019-01-30T15:10:14.951Z,5.68
2019-01-30T15:12:42.994Z,5.70
2019-01-30T15:15:14.481Z,5.75
2019-01-30T15:17:42.523Z,5.76
2019-01-30T15:36:50.806Z,5.80
2019-01-30T15:39:19.134Z,5.78
2019-01-30T15:41:47.291Z,5.81
2019-01-30T15:44:15.630Z,5.85
2019-01-30T15:46:43.740Z,5.85
2019-01-30T15:49:12.007Z,5.86
2019-01-30T15:51:40.082Z,5.85
2019-01-30T15:54:08.242Z,5.82
2019-01-30T15:56:37.191Z,5.80
2019-01-30T15:59:09.017Z,5.81
2019-01-30T16:01:43.193Z,5.82
2019-01-30T16:04:11.614Z,5.82
2019-01-30T16:06:40.651Z,5.80
2019-01-30T16:09:09.675Z,5.81
2019-01-30T16:11:37.861Z,5.77
2019-01-30T16:14:06.128Z,5.75
2019-01-30T16:16:34.567Z,5.71
2019-01-30T16:19:02.842Z,5.71
2019-01-30T16:21:30.938Z,5.70
2019-01-30T16:23:59.118Z,5.67
2019-01-30T16:26:27.224Z,5.67
2019-01-30T16:28:55.678Z,5.67
2019-01-30T16:31:24.979Z,5.66
2019-01-30T16:33:53.381Z,5.65
2019-01-30T16:36:22.027Z,5.64
2019-01-30T16:38:50.229Z,5.64
2019-01-30T16:41:18.542Z,5.60
2019-01-30T16:43:46.644Z,5.61
2019-01-30T16:46:14.883Z,5.61
2019-01-30T16:48:43.167Z,5.60
2019-01-30T16:51:11.551Z,5.59
2019-01-30T16:53:39.733Z,5.58
2019-01-30T16:56:07.926Z,5.57
2019-01-30T16:58:36.715Z,5.54
2019-01-30T17:01:05.576Z,5.56
2019-01-30T17:03:33.790Z,5.56
2019-01-30T17:06:07.636Z,5.54
2019-01-30T17:08:33.623Z,5.51
2019-01-30T17:11:02.030Z,5.48
2019-01-30T17:13:30.510Z,5.45
2019-01-30T17:15:59.236Z,5.44
2019-01-30T17:18:27.461Z,5.43
2019-01-30T17:20:55.797Z,5.39
2019-01-30T17:23:23.896Z,5.36
2019-01-30T17:25:53.272Z,5.32
2019-01-30T17:28:21.593Z,5.29
2019-01-30T17:31:26.065Z,5.27
2019-01-30T17:33:54.233Z,5.23
2019-01-30T17:36:22.616Z,5.19
2019-01-30T17:38:51.874Z,5.16
2019-01-30T17:41:20.522Z,5.13
2019-01-30T17:43:48.996Z,5.10
2019-01-30T17:46:17.574Z,5.09
2019-01-30T17:48:48.597Z,5.06
2019-01-30T17:51:16.187Z,5.02
2019-01-30T17:53:44.289Z,4.96
2019-01-30T17:56:12.621Z,4.92
2019-01-30T17:58:40.735Z,4.87
2019-01-30T18:01:09.191Z,4.84
2019-01-30T18:03:37.305Z,4.83
2019-01-30T18:06:05.958Z,4.80
2019-01-30T18:08:34.071Z,4.77
2019-01-30T18:11:03.639Z,4.74
2019-01-30T18:13:32.072Z,4.72
2019-01-30T18:16:01.815Z,4.72
2019-01-30T18:18:29.926Z,4.73
2019-01-30T18:20:58.202Z,4.71
2019-01-30T18:23:26.390Z,4.71
2019-01-30T18:25:54.650Z,4.69
2019-01-30T18:28:22.783Z,4.66
2019-01-30T18:30:51.117Z,4.63
2019-01-30T18:33:20.495Z,4.63
2019-01-30T18:35:50.561Z,4.61
2019-01-30T18:38:18.745Z,4.60
2019-01-30T18:40:47.586Z,4.57
2019-01-30T18:43:15.832Z,4.57
2019-01-30T18:45:44.144Z,4.52
2019-01-30T18:48:12.434Z,4.47
2019-01-30T18:50:41.717Z,4.45
2019-01-30T18:53:09.976Z,4.41
2019-01-30T18:55:38.166Z,4.41
2019-01-30T18:58:06.470Z,4.41
2019-01-30T19:00:41.327Z,4.42
2019-01-30T19:03:13.071Z,4.45
2019-01-30T19:05:41.211Z,4.45
2019-01-30T19:08:09.523Z,4.45
2019-01-30T19:10:38.356Z,4.45
2019-01-30T19:13:06.586Z,4.46
2019-01-30T19:15:34.778Z,4.47
2019-01-30T19:18:03.328Z,4.48
2019-01-30T19:20:35.145Z,4.47
2019-01-30T19:23:06.795Z,4.48
2019-01-30T19:25:33.941Z,4.48
2019-01-30T19:28:02.262Z,4.48
2019-01-30T19:30:31.933Z,4.48
2019-01-30T19:33:00.754Z,4.47
2019-01-30T19:35:29.303Z,4.47
2019-01-30T19:37:57.641Z,4.47
2019-01-30T19:40:26.269Z,4.46
2019-01-30T19:42:54.393Z,4.45
2019-01-30T19:45:24.717Z,4.44
2019-01-30T19:47:53.006Z,4.45
2019-01-30T19:50:26.681Z,4.43
2019-01-30T19:52:57.235Z,4.43
2019-01-30T19:55:28.340Z,4.43
2019-01-30T19:57:57.075Z,4.44
2019-01-30T20:00:28.926Z,4.45
2019-01-30T20:02:57.442Z,4.45
2019-01-30T20:05:26.039Z,4.45
2019-01-30T20:07:56.116Z,4.47
2019-01-30T20:10:30.517Z,4.49
2019-01-30T20:12:59.818Z,4.52
2019-01-30T20:15:30.078Z,4.55
2019-01-30T20:17:58.813Z,4.57
2019-01-30T20:20:27.429Z,4.59
2019-01-30T20:22:55.671Z,4.58
2019-01-30T20:25:27.312Z,4.58
2019-01-30T20:27:55.446Z,4.59
2019-01-30T20:30:24.763Z,4.58
2019-01-30T20:32:53.125Z,4.60
2019-01-30T20:35:21.882Z,4.61
2019-01-30T20:37:50.123Z,4.64
2019-01-30T20:40:21.548Z,4.66
2019-01-30T20:42:52.620Z,4.69
2019-01-30T20:45:19.936Z,4.71
2019-01-30T20:47:49.966Z,4.72
2019-01-30T20:50:21.337Z,4.73
2019-01-30T20:52:49.594Z,4.71
2019-01-30T20:55:19.257Z,4.70
2019-01-30T20:57:47.370Z,4.69
2019-01-30T21:00:23.560Z,4.68
2019-01-30T21:02:51.769Z,4.67
2019-01-30T21:05:20.990Z,4.68
2019-01-30T21:07:49.087Z,4.67
2019-01-30T21:10:23.796Z,4.66
2019-01-30T21:12:51.897Z,4.65
2019-01-30T21:15:19.992Z,4.66
2019-01-30T21:17:50.013Z,4.65
2019-01-30T21:20:18.076Z,4.65
2019-01-30T21:22:48.354Z,4.66
2019-01-30T21:25:19.076Z,4.66
2019-01-30T21:27:49.317Z,4.68
2019-01-30T21:30:21.346Z,4.68
2019-01-30T21:32:50.684Z,4.66
2019-01-30T21:35:20.737Z,4.64
2019-01-30T21:37:49.380Z,4.63
2019-01-30T21:40:17.731Z,4.62
2019-01-30T21:42:46.915Z,4.59
2019-01-30T21:45:20.281Z,4.57
2019-01-30T21:47:48.760Z,4.54
2019-01-30T21:50:17.252Z,4.54
2019-01-30T21:52:45.357Z,4.54
2019-01-30T21:55:18.982Z,4.53
2019-01-30T21:57:48.389Z,4.54
2019-01-30T22:00:22.557Z,4.54
2019-01-30T22:02:51.277Z,4.55
2019-01-30T22:05:19.361Z,4.55
2019-01-30T22:07:47.415Z,4.57
2019-01-30T22:10:18.870Z,4.55
2019-01-30T22:12:47.046Z,4.52
2019-01-30T22:15:15.792Z,4.47
2019-01-30T22:17:44.215Z,4.44
2019-01-30T22:20:24.077Z,4.38
2019-01-30T22:22:52.350Z,4.33
2019-01-30T22:25:21.679Z,4.23
2019-01-30T22:27:49.785Z,4.17
2019-01-30T22:30:32.738Z,4.10
2019-01-30T22:33:00.811Z,4.05
2019-01-30T22:35:28.900Z,3.98
2019-01-30T22:37:57.350Z,3.91
2019-01-30T22:40:25.562Z,3.84
2019-01-30T22:42:53.633Z,3.79
2019-01-30T22:45:22.025Z,3.72
2019-01-30T22:47:50.046Z,3.68
2019-01-30T22:50:20.335Z,3.65
2019-01-30T22:52:48.690Z,3.58
2019-01-30T22:55:18.892Z,3.51
2019-01-30T22:57:47.079Z,3.46
2019-01-30T23:00:50.177Z,3.41
2019-01-30T23:03:19.497Z,3.37
2019-01-30T23:06:59.743Z,3.31
2019-01-30T23:10:00.729Z,3.25
2019-01-30T23:12:58.578Z,3.19
2019-01-30T23:15:47.194Z,3.15
2019-01-30T23:19:20.415Z,3.10
2019-01-30T23:22:38.407Z,3.07
2019-01-30T23:25:38.992Z,3.04
2019-01-30T23:28:37.347Z,3.01
2019-01-30T23:31:28.688Z,2.96
2019-01-30T23:34:50.328Z,2.93
2019-01-30T23:38:02.394Z,2.87
2019-01-30T23:41:42.189Z,2.78
2019-01-30T23:44:42.697Z,2.75
2019-01-30T23:48:10.207Z,2.71
2019-01-30T23:51:32.308Z,2.66
2019-01-30T23:54:37.181Z,2.66
2019-01-30T23:57:49.954Z,2.62
